Time;durP1;ratioP1;P1;durP2;ratioP2;P2;SDS_P1;SDS_P2;PMS_P1;PMS_P2;Temp;Humidity;BMP_temperature;BMP_pressure;BME280_temperature;BME280_humidity;BME280_pressure;Samples;Min_cycle;Max_cycle;Signal;HPM_P1;HPM_P2
2021/09/24 00:02:20;;;;;;;24.40;4.50;;;;;;;12.34;100.00;100259.16;2614686;31;20064;-55
2021/09/24 00:04:48;;;;;;;19.90;4.05;;;;;;;12.39;100.00;100262.63;2614435;36;20026;-52
2021/09/24 00:07:15;;;;;;;24.00;3.83;;;;;;;12.44;100.00;100252.41;2615066;31;20562;-50
2021/09/24 00:09:42;;;;;;;19.73;4.63;;;;;;;12.42;100.00;100256.63;2614839;31;20035;-55
2021/09/24 00:12:10;;;;;;;22.90;4.15;;;;;;;12.32;100.00;100257.38;2615459;31;20104;-54
2021/09/24 00:14:37;;;;;;;23.77;4.70;;;;;;;12.25;100.00;100248.75;2615453;31;20492;-53
2021/09/24 00:17:04;;;;;;;21.98;4.80;;;;;;;12.15;100.00;100245.19;2614653;31;20558;-54
2021/09/24 00:19:31;;;;;;;23.95;4.03;;;;;;;12.03;100.00;100245.06;2614699;31;20072;-53
2021/09/24 00:21:59;;;;;;;25.25;4.45;;;;;;;12.00;100.00;100239.03;2614708;31;20018;-54
2021/09/24 00:24:26;;;;;;;23.55;4.07;;;;;;;12.04;100.00;100240.78;2615383;31;20434;-52
2021/09/24 00:26:53;;;;;;;21.63;4.60;;;;;;;11.95;100.00;100246.66;2614469;36;20419;-51
2021/09/24 00:29:20;;;;;;;22.35;4.40;;;;;;;11.96;100.00;100251.81;2614557;36;20030;-56
2021/09/24 00:31:47;;;;;;;20.73;4.07;;;;;;;11.95;100.00;100249.25;2614996;36;20070;-51
2021/09/24 00:34:14;;;;;;;34.17;4.32;;;;;;;11.95;100.00;100255.22;2614627;36;20030;-54
2021/09/24 00:36:42;;;;;;;19.20;3.80;;;;;;;11.94;100.00;100263.78;2615229;31;20365;-51
2021/09/24 00:39:09;;;;;;;18.92;4.38;;;;;;;11.92;100.00;100259.44;2614777;36;20035;-52
2021/09/24 00:41:36;;;;;;;22.38;4.50;;;;;;;12.05;100.00;100257.91;2615160;31;20138;-51
2021/09/24 00:44:04;;;;;;;18.35;3.60;;;;;;;11.94;100.00;100261.22;2614952;31;20023;-48
2021/09/24 00:46:32;;;;;;;24.58;4.32;;;;;;;11.93;100.00;100267.19;2616019;31;20176;-50
2021/09/24 00:49:17;;;;;;;20.42;5.35;;;;;;;11.98;100.00;100260.41;2578768;36;2004553;-48
2021/09/24 00:51:44;;;;;;;21.77;4.38;;;;;;;11.89;100.00;100265.41;2615315;36;20383;-49
2021/09/24 00:54:12;;;;;;;26.02;5.18;;;;;;;11.88;100.00;100257.72;2614975;36;20162;-48
2021/09/24 00:56:39;;;;;;;21.15;4.60;;;;;;;11.84;100.00;100276.47;2615738;31;20038;-49
2021/09/24 00:59:06;;;;;;;22.77;4.50;;;;;;;11.85;100.00;100270.50;2614890;36;20057;-51
2021/09/24 01:01:33;;;;;;;25.50;4.25;;;;;;;11.82;100.00;100275.53;2615657;36;20553;-49
2021/09/24 01:04:01;;;;;;;21.75;4.65;;;;;;;11.85;100.00;100258.53;2616791;31;20594;-54
2021/09/24 01:06:28;;;;;;;24.58;4.93;;;;;;;11.81;100.00;100269.53;2615093;36;20549;-49
2021/09/24 01:08:56;;;;;;;26.00;4.40;;;;;;;11.80;100.00;100266.97;2615577;31;20046;-48
2021/09/24 01:11:23;;;;;;;23.88;4.68;;;;;;;11.88;100.00;100268.84;2614979;36;20058;-49
2021/09/24 01:13:50;;;;;;;29.98;4.93;;;;;;;11.93;100.00;100262.06;2615688;31;20060;-48
2021/09/24 01:16:17;;;;;;;23.42;4.07;;;;;;;11.83;100.00;100262.78;2615276;31;20095;-49
2021/09/24 01:18:44;;;;;;;24.10;4.38;;;;;;;11.81;100.00;100266.13;2615987;31;20027;-47
2021/09/24 01:21:12;;;;;;;22.27;4.32;;;;;;;11.69;100.00;100260.00;2615456;31;20031;-50
2021/09/24 01:23:39;;;;;;;24.70;5.45;;;;;;;11.72;100.00;100267.72;2615637;36;20052;-52
2021/09/24 01:26:07;;;;;;;20.75;3.90;;;;;;;11.63;100.00;100266.72;2615115;36;20026;-52
2021/09/24 01:28:34;;;;;;;25.25;4.22;;;;;;;11.71;100.00;100266.00;2615427;31;20054;-51
2021/09/24 01:31:01;;;;;;;22.88;4.43;;;;;;;11.73;100.00;100269.44;2614965;36;20439;-49
2021/09/24 01:33:29;;;;;;;24.63;3.72;;;;;;;11.82;100.00;100270.41;2615640;31;20030;-48
2021/09/24 01:35:56;;;;;;;29.08;5.00;;;;;;;11.78;100.00;100271.19;2615514;31;20041;-50
2021/09/24 01:38:25;;;;;;;24.77;4.40;;;;;;;11.75;100.00;100284.00;2614661;36;20053;-48
2021/09/24 01:40:53;;;;;;;32.25;4.88;;;;;;;11.79;100.00;100272.94;2615506;31;20082;-48
2021/09/24 01:43:22;;;;;;;22.08;4.18;;;;;;;11.86;100.00;100283.31;2616796;31;20052;-49
2021/09/24 01:45:51;;;;;;;24.08;3.95;;;;;;;11.92;100.00;100285.09;2615244;31;20054;-49
2021/09/24 01:48:20;;;;;;;28.73;4.47;;;;;;;11.93;100.00;100284.28;2615473;31;20035;-47
2021/09/24 01:50:48;;;;;;;23.77;4.30;;;;;;;12.00;100.00;100291.22;2615393;31;20022;-49
2021/09/24 01:53:17;;;;;;;28.40;4.82;;;;;;;12.06;100.00;100285.28;2615093;36;20035;-48
2021/09/24 01:55:46;;;;;;;31.38;4.70;;;;;;;12.04;100.00;100292.97;2615072;31;20558;-49
2021/09/24 01:58:19;;;;;;;19.75;4.30;;;;;;;12.04;100.00;100294.69;2615355;31;20498;-48
2021/09/24 02:00:48;;;;;;;28.92;3.85;;;;;;;12.09;100.00;100296.47;2617802;36;20154;-49
2021/09/24 02:03:19;;;;;;;24.85;3.42;;;;;;;12.09;100.00;100287.91;2623620;31;20058;-48
2021/09/24 02:05:49;;;;;;;19.77;3.95;;;;;;;12.15;100.00;100308.50;2614737;31;20037;-48
2021/09/24 02:08:18;;;;;;;26.00;4.00;;;;;;;12.16;100.00;100305.13;2614570;31;20035;-48
2021/09/24 02:10:47;;;;;;;28.17;4.75;;;;;;;12.16;100.00;100292.28;2614885;36;20443;-48
2021/09/24 02:13:16;;;;;;;24.63;4.03;;;;;;;12.16;100.00;100310.25;2614816;36;20031;-49
2021/09/24 02:15:45;;;;;;;24.23;4.78;;;;;;;12.15;100.00;100309.38;2614528;36;20458;-50
2021/09/24 02:18:14;;;;;;;24.50;4.55;;;;;;;12.19;100.00;100307.72;2615127;31;20110;-49
2021/09/24 02:20:43;;;;;;;27.15;5.13;;;;;;;12.18;100.00;100306.00;2615006;31;20037;-49
2021/09/24 02:23:12;;;;;;;24.67;5.82;;;;;;;12.18;100.00;100312.00;2614704;36;20032;-47
2021/09/24 02:25:43;;;;;;;22.98;4.07;;;;;;;12.18;100.00;100322.25;2616000;31;20542;-48
2021/09/24 02:28:12;;;;;;;25.42;4.38;;;;;;;12.19;100.00;100323.13;2614858;36;20041;-48
2021/09/24 02:30:41;;;;;;;23.25;4.88;;;;;;;12.22;100.00;100325.72;2615292;31;20131;-48
2021/09/24 02:33:10;;;;;;;20.83;4.20;;;;;;;12.21;100.00;100318.88;2615005;31;20030;-50
2021/09/24 02:35:40;;;;;;;20.83;4.05;;;;;;;12.24;100.00;100330.03;2614996;36;20069;-50
2021/09/24 02:38:09;;;;;;;28.25;4.35;;;;;;;12.22;100.00;100329.16;2614665;36;20041;-48
2021/09/24 02:40:38;;;;;;;18.10;4.50;;;;;;;12.21;100.00;100336.84;2615482;31;20589;-51
2021/09/24 02:43:06;;;;;;;29.70;5.30;;;;;;;12.22;100.00;100330.88;2614715;36;20030;-47
2021/09/24 02:45:34;;;;;;;20.65;4.07;;;;;;;12.22;100.00;100339.44;2614691;36;20038;-50
2021/09/24 02:48:01;;;;;;;27.75;4.20;;;;;;;12.22;100.00;100347.13;2614351;36;20037;-49
2021/09/24 02:50:28;;;;;;;26.30;5.18;;;;;;;12.23;100.00;100347.97;2614656;36;20030;-49
2021/09/24 02:52:55;;;;;;;27.20;4.60;;;;;;;12.22;100.00;100342.00;2614982;31;20030;-48
2021/09/24 02:55:23;;;;;;;30.92;4.68;;;;;;;12.23;100.00;100358.25;2616281;31;20441;-47
2021/09/24 02:57:50;;;;;;;22.15;4.03;;;;;;;12.23;100.00;100343.72;2614252;36;20146;-49
2021/09/24 03:00:18;;;;;;;26.50;4.82;;;;;;;12.26;100.00;100353.16;2614547;36;20581;-49
2021/09/24 03:02:45;;;;;;;23.17;3.65;;;;;;;12.26;100.00;100363.44;2614531;36;20034;-48
2021/09/24 03:05:13;;;;;;;22.33;3.78;;;;;;;12.24;100.00;100363.41;2614484;31;20031;-51
2021/09/24 03:07:40;;;;;;;25.80;4.75;;;;;;;12.24;100.00;100367.66;2614503;31;20030;-51
2021/09/24 03:10:08;;;;;;;28.75;4.50;;;;;;;12.24;100.00;100376.22;2614942;31;20030;-49
2021/09/24 03:12:35;;;;;;;29.38;4.88;;;;;;;12.23;100.00;100371.94;2614636;31;20042;-51
2021/09/24 03:15:04;;;;;;;19.60;3.80;;;;;;;12.22;100.00;100375.38;2614657;31;20038;-49
2021/09/24 03:17:31;;;;;;;24.92;5.43;;;;;;;12.22;100.00;100372.78;2614575;36;20030;-48
2021/09/24 03:19:58;;;;;;;22.10;4.88;;;;;;;12.24;100.00;100383.06;2616391;31;20540;-47
2021/09/24 03:22:26;;;;;;;24.27;4.45;;;;;;;12.22;100.00;100366.81;2615671;31;20045;-48
2021/09/24 03:24:53;;;;;;;24.92;5.10;;;;;;;12.19;100.00;100377.03;2615408;36;20450;-50
2021/09/24 03:27:20;;;;;;;30.88;5.30;;;;;;;12.19;100.00;100377.03;2615021;31;20570;-47
2021/09/24 03:29:47;;;;;;;23.42;4.10;;;;;;;12.18;100.00;100381.28;2616105;31;20030;-49
2021/09/24 03:32:18;;;;;;;26.85;5.45;;;;;;;12.18;100.00;100378.72;2616548;31;20031;-48
2021/09/24 03:34:47;;;;;;;29.23;3.80;;;;;;;12.18;100.00;100385.56;2616328;31;20030;-47
2021/09/24 03:37:15;;;;;;;27.88;4.75;;;;;;;12.18;100.00;100380.44;2615347;36;20434;-47
2021/09/24 03:39:43;;;;;;;18.92;3.58;;;;;;;12.18;100.00;100383.00;2615724;31;20031;-47
2021/09/24 03:42:10;;;;;;;26.80;6.05;;;;;;;12.18;100.00;100390.69;2615217;36;20348;-51
2021/09/24 03:44:37;;;;;;;27.15;4.25;;;;;;;12.17;100.00;100405.25;2617860;36;20062;-51
2021/09/24 03:47:05;;;;;;;28.05;4.57;;;;;;;12.17;100.00;100399.25;2620202;36;20446;-51
2021/09/24 03:49:32;;;;;;;20.50;4.15;;;;;;;12.17;100.00;100399.25;2618320;31;20030;-48
2021/09/24 03:52:00;;;;;;;18.38;4.50;;;;;;;12.18;100.00;100390.69;2616704;31;20039;-48
2021/09/24 03:54:28;;;;;;;23.15;5.10;;;;;;;12.16;100.00;100393.25;2615707;36;20030;-48
2021/09/24 03:56:56;;;;;;;29.23;5.28;;;;;;;12.15;100.00;100398.34;2615187;36;20030;-50
2021/09/24 03:59:23;;;;;;;24.70;4.38;;;;;;;12.15;100.00;100406.03;2615647;31;20019;-49
2021/09/24 04:01:51;;;;;;;20.25;4.18;;;;;;;12.16;100.00;100408.66;2615688;31;20034;-49
2021/09/24 04:04:18;;;;;;;24.38;4.18;;;;;;;12.17;100.00;100402.69;2615357;31;20395;-48
2021/09/24 04:06:45;;;;;;;26.08;4.57;;;;;;;12.19;100.00;100402.69;2616021;31;20096;-48
2021/09/24 04:09:13;;;;;;;30.10;4.90;;;;;;;12.15;100.00;100398.34;2615114;31;20030;-51
2021/09/24 04:11:40;;;;;;;27.73;4.95;;;;;;;12.15;100.00;100396.63;2614940;36;20041;-50
2021/09/24 04:14:07;;;;;;;21.58;4.20;;;;;;;12.14;100.00;100406.91;2614583;31;20053;-50
2021/09/24 04:16:35;;;;;;;20.67;4.10;;;;;;;12.14;100.00;100389.78;2615500;31;20435;-48
2021/09/24 04:19:02;;;;;;;21.30;3.33;;;;;;;12.13;100.00;100389.78;2615096;36;20430;-48
2021/09/24 04:21:29;;;;;;;27.80;4.53;;;;;;;12.10;100.00;100385.44;2615433;31;20099;-49
2021/09/24 04:23:56;;;;;;;25.20;4.10;;;;;;;12.09;100.00;100393.13;2615047;36;20034;-50
2021/09/24 04:26:24;;;;;;;22.95;4.38;;;;;;;12.06;100.00;100405.91;2615143;31;20026;-55
2021/09/24 04:28:52;;;;;;;28.10;5.28;;;;;;;12.03;100.00;100403.31;2615044;36;20041;-51
2021/09/24 04:31:19;;;;;;;21.05;4.03;;;;;;;12.01;100.00;100410.97;2615840;31;20030;-51
2021/09/24 04:33:46;;;;;;;23.40;4.93;;;;;;;12.01;100.00;100405.84;2615416;31;20030;-49
2021/09/24 04:36:14;;;;;;;30.95;4.28;;;;;;;12.00;100.00;100413.53;2616185;31;20474;-49
2021/09/24 04:38:41;;;;;;;20.80;4.05;;;;;;;12.00;100.00;100406.69;2615662;31;20038;-51
2021/09/24 04:41:08;;;;;;;24.38;4.20;;;;;;;12.02;100.00;100412.72;2615012;36;20142;-50
2021/09/24 04:43:35;;;;;;;23.10;4.43;;;;;;;12.04;100.00;100420.44;2615127;36;20038;-48
2021/09/24 04:46:02;;;;;;;26.90;4.53;;;;;;;12.01;100.00;100416.09;2614824;31;20038;-48
2021/09/24 04:48:31;;;;;;;25.63;5.63;;;;;;;12.00;100.00;100419.53;2615223;36;20568;-50
2021/09/24 04:51:00;;;;;;;23.85;4.18;;;;;;;11.98;100.00;100427.22;2615808;31;20034;-49
2021/09/24 04:53:27;;;;;;;26.33;5.13;;;;;;;11.98;100.00;100413.50;2616535;31;20042;-48
2021/09/24 04:55:54;;;;;;;24.65;5.03;;;;;;;11.97;100.00;100415.22;2615047;36;20038;-52
2021/09/24 04:58:21;;;;;;;26.30;5.28;;;;;;;11.95;100.00;100414.31;2615351;36;20463;-49
2021/09/24 05:00:49;;;;;;;25.48;4.90;;;;;;;11.95;100.00;100416.03;2615115;36;20030;-50
2021/09/24 05:03:17;;;;;;;22.33;4.13;;;;;;;11.97;100.00;100417.78;2615482;31;20038;-48
2021/09/24 05:05:44;;;;;;;26.77;5.20;;;;;;;11.99;100.00;100422.94;2614788;36;20581;-50
2021/09/24 05:08:11;;;;;;;25.40;4.85;;;;;;;11.98;100.00;100426.34;2614431;36;20037;-48
2021/09/24 05:10:39;;;;;;;27.85;4.97;;;;;;;11.99;100.00;100430.63;2615086;31;20039;-47
2021/09/24 05:13:07;;;;;;;27.70;5.03;;;;;;;11.98;100.00;100427.22;2615001;31;20031;-48
2021/09/24 05:15:34;;;;;;;19.83;4.25;;;;;;;12.02;100.00;100433.25;2613234;36;20072;-49
2021/09/24 05:18:02;;;;;;;21.00;5.18;;;;;;;12.02;100.00;100424.66;2614250;31;20446;-45
2021/09/24 05:20:29;;;;;;;25.40;4.55;;;;;;;12.02;100.00;100428.13;2613937;36;20042;-48
2021/09/24 05:22:57;;;;;;;19.88;4.10;;;;;;;12.01;100.00;100426.38;2615177;31;20442;-52
2021/09/24 05:25:25;;;;;;;21.88;4.10;;;;;;;12.03;100.00;100434.13;2614010;31;20500;-47
2021/09/24 05:27:52;;;;;;;22.75;4.20;;;;;;;12.04;100.00;100434.13;2614028;31;20053;-50
2021/09/24 05:30:20;;;;;;;23.85;4.57;;;;;;;12.05;100.00;100435.84;2614465;36;20033;-50
2021/09/24 05:32:47;;;;;;;23.33;5.28;;;;;;;12.05;100.00;100430.72;2616147;31;20050;-46
2021/09/24 05:35:16;;;;;;;25.65;5.80;;;;;;;12.08;100.00;100424.78;2615493;31;20027;-47
2021/09/24 05:37:44;;;;;;;26.58;4.55;;;;;;;12.06;100.00;100429.00;2614606;36;20039;-47
2021/09/24 05:40:12;;;;;;;26.45;4.47;;;;;;;12.05;100.00;100433.28;2614952;36;20558;-50
2021/09/24 05:42:43;;;;;;;25.52;4.78;;;;;;;12.04;100.00;100440.97;2615105;31;20030;-46
2021/09/24 05:45:13;;;;;;;29.27;4.75;;;;;;;12.00;100.00;100450.31;2614075;36;20035;-49
2021/09/24 05:47:42;;;;;;;23.67;5.45;;;;;;;11.96;100.00;100453.66;2614459;36;20064;-50
2021/09/24 05:50:14;;;;;;;22.77;4.32;;;;;;;11.97;100.00;100456.28;2615487;36;20549;-48
2021/09/24 05:52:44;;;;;;;22.92;4.68;;;;;;;12.02;100.00;100455.47;2615051;31;20566;-50
2021/09/24 05:55:14;;;;;;;30.40;5.80;;;;;;;12.10;100.00;100456.44;2614512;36;20027;-46
2021/09/24 05:57:42;;;;;;;21.60;4.80;;;;;;;12.17;100.00;100453.16;2613689;36;20155;-50
2021/09/24 06:00:12;;;;;;;23.33;5.72;;;;;;;12.18;100.00;100458.31;2615003;31;20038;-50
2021/09/24 06:02:39;;;;;;;23.00;5.15;;;;;;;12.08;100.00;100456.44;2615264;31;20458;-46
2021/09/24 06:05:08;;;;;;;25.20;5.18;;;;;;;12.09;100.00;100457.31;2614481;36;20690;-49
2021/09/24 06:07:35;;;;;;;25.20;4.32;;;;;;;12.14;100.00;100458.22;2616098;31;20058;-49
2021/09/24 06:10:04;;;;;;;22.50;4.78;;;;;;;12.13;100.00;100459.06;2615526;36;20396;-47
2021/09/24 06:12:32;;;;;;;19.70;4.28;;;;;;;12.15;100.00;100457.38;2614583;36;20034;-49
2021/09/24 06:15:01;;;;;;;23.88;4.30;;;;;;;12.30;100.00;100467.91;2612818;36;20038;-47
2021/09/24 06:17:29;;;;;;;22.13;3.78;;;;;;;12.62;100.00;100473.50;2613749;31;20034;-49
2021/09/24 06:19:57;;;;;;;24.27;5.07;;;;;;;13.64;100.00;100479.03;2614290;36;20247;-49
2021/09/24 06:22:25;;;;;;;18.58;3.58;;;;;;;14.30;98.58;100482.16;2614674;36;20061;-52
2021/09/24 06:24:55;;;;;;;21.35;4.72;;;;;;;15.62;89.78;100475.88;2614367;36;20030;-50
2021/09/24 06:27:23;;;;;;;26.88;4.40;;;;;;;15.65;89.42;100483.66;2614332;36;20062;-49
2021/09/24 06:29:54;;;;;;;21.95;4.55;;;;;;;14.69;93.88;100478.97;2615054;31;20038;-48
2021/09/24 06:32:24;;;;;;;21.23;4.38;;;;;;;14.63;94.30;100485.81;2614342;36;20049;-47
2021/09/24 06:34:52;;;;;;;26.92;5.45;;;;;;;14.26;97.61;100482.97;2614483;36;20581;-49
2021/09/24 06:37:19;;;;;;;14.70;3.95;;;;;;;14.12;97.84;100498.31;2614383;31;20038;-48
2021/09/24 06:39:46;;;;;;;27.13;5.82;;;;;;;14.39;96.99;100489.09;2614544;36;20035;-47
2021/09/24 06:42:14;;;;;;;22.33;5.78;;;;;;;14.79;94.78;100500.53;2614636;36;20181;-47
2021/09/24 06:44:41;;;;;;;24.20;5.20;;;;;;;14.99;93.54;100496.31;2614602;36;20038;-51
2021/09/24 06:47:08;;;;;;;20.50;3.97;;;;;;;14.69;94.62;100502.16;2613717;36;20672;-51
2021/09/24 06:49:36;;;;;;;25.45;4.18;;;;;;;14.12;97.84;100503.47;2615143;31;20361;-50
2021/09/24 06:52:04;;;;;;;22.50;4.38;;;;;;;13.72;100.00;100507.38;2615088;31;20178;-50
2021/09/24 06:54:32;;;;;;;18.77;3.63;;;;;;;13.41;100.00;100512.22;2614975;31;20114;-52
2021/09/24 06:56:59;;;;;;;23.92;5.18;;;;;;;13.25;100.00;100518.03;2613742;36;20034;-52
2021/09/24 06:59:27;;;;;;;25.40;4.32;;;;;;;13.11;100.00;100512.69;2614999;36;20041;-50
2021/09/24 07:01:56;;;;;;;18.55;4.45;;;;;;;13.16;100.00;100507.59;2614682;36;20029;-49
2021/09/24 07:04:23;;;;;;;27.73;5.63;;;;;;;13.02;100.00;100507.41;2615222;31;20620;-47
2021/09/24 07:06:51;;;;;;;21.38;4.03;;;;;;;13.10;100.00;100505.81;2614867;36;20031;-50
2021/09/24 07:09:18;;;;;;;27.58;4.32;;;;;;;13.03;100.00;100510.84;2614895;31;20458;-47
2021/09/24 07:11:48;;;;;;;26.15;4.70;;;;;;;12.91;100.00;100517.56;2615355;31;20030;-52
2021/09/24 07:14:17;;;;;;;21.67;3.72;;;;;;;12.93;100.00;100509.88;2615349;31;20035;-49
2021/09/24 07:16:46;;;;;;;22.52;4.53;;;;;;;12.98;100.00;100513.38;2614794;31;20570;-50
2021/09/24 07:19:14;;;;;;;21.42;3.97;;;;;;;13.03;100.00;100522.00;2615252;36;20042;-53
2021/09/24 07:21:41;;;;;;;27.65;4.53;;;;;;;13.03;100.00;100511.72;2616008;31;20032;-49
2021/09/24 07:24:09;;;;;;;24.58;5.25;;;;;;;13.11;100.00;100514.41;2614974;31;20034;-52
2021/09/24 07:26:36;;;;;;;22.75;4.88;;;;;;;13.23;100.00;100523.16;2614982;36;20038;-49
2021/09/24 15:39:57;;;;;;;4.60;1.77;;;;;;;16.91;100.00;100530.97;2614174;31;20037;-55
2021/09/24 15:42:24;;;;;;;4.05;1.45;;;;;;;16.94;100.00;100532.69;2615240;36;20037;-55
2021/09/24 15:44:51;;;;;;;3.60;1.83;;;;;;;16.90;100.00;100526.66;2615596;31;20447;-58
2021/09/24 15:47:18;;;;;;;6.22;2.58;;;;;;;16.87;100.00;100523.22;2614914;36;20065;-58
2021/09/24 15:49:45;;;;;;;6.65;1.65;;;;;;;16.86;100.00;100529.25;2615963;31;20570;-59
2021/09/24 15:52:13;;;;;;;4.13;1.60;;;;;;;16.80;100.00;100525.84;2616293;31;20577;-57
2021/09/24 15:54:40;;;;;;;4.68;1.30;;;;;;;16.77;100.00;100532.72;2615879;36;20442;-59
2021/09/24 15:57:07;;;;;;;4.30;1.67;;;;;;;16.71;100.00;100532.72;2615953;31;20034;-57
2021/09/24 15:59:34;;;;;;;4.55;1.90;;;;;;;16.69;100.00;100534.47;2616194;31;20026;-59
2021/09/24 16:02:02;;;;;;;4.07;2.17;;;;;;;16.69;100.00;100526.72;2615831;36;20030;-57
2021/09/24 16:04:29;;;;;;;6.40;2.05;;;;;;;16.66;100.00;100532.72;2615314;36;20037;-58
2021/09/24 16:06:56;;;;;;;7.78;2.70;;;;;;;16.64;100.00;100529.31;2615581;31;20027;-57
2021/09/24 16:09:23;;;;;;;4.97;2.85;;;;;;;16.59;100.00;100536.19;2615761;36;20652;-59
2021/09/24 16:11:51;;;;;;;5.13;1.95;;;;;;;16.60;100.00;100535.34;2616995;31;20034;-56
2021/09/24 16:14:18;;;;;;;3.47;2.05;;;;;;;16.61;100.00;100536.19;2615827;31;20034;-58
2021/09/24 16:16:45;;;;;;;5.18;2.20;;;;;;;16.59;100.00;100537.91;2618483;31;20045;-61
2021/09/24 16:19:12;;;;;;;3.28;2.00;;;;;;;16.57;100.00;100535.31;2615373;36;20062;-56
2021/09/24 16:21:40;;;;;;;8.20;2.47;;;;;;;16.56;100.00;100538.78;2615439;36;20078;-59
2021/09/24 16:24:11;;;;;;;3.80;2.33;;;;;;;16.53;100.00;100541.38;2616524;31;20578;-59
2021/09/24 16:26:39;;;;;;;4.60;2.70;;;;;;;16.53;100.00;100538.78;2616062;31;20125;-57
2021/09/24 16:29:06;;;;;;;4.38;2.70;;;;;;;16.48;100.00;100538.78;2615098;36;20030;-55
2021/09/24 16:31:34;;;;;;;7.13;3.63;;;;;;;16.49;100.00;100545.66;2615914;31;20034;-57
2021/09/24 16:34:08;;;;;;;5.03;2.33;;;;;;;16.49;100.00;100539.63;2615737;31;20022;-60
2021/09/24 16:36:37;;;;;;;5.93;5.15;;;;;;;16.46;100.00;100547.41;2615886;31;20038;-59
2021/09/24 16:39:10;;;;;;;5.75;4.45;;;;;;;16.40;100.00;100545.66;2616017;36;20568;-58
2021/09/24 16:41:38;;;;;;;4.22;2.85;;;;;;;16.39;100.00;100556.03;2615583;31;20044;-60
2021/09/24 16:44:07;;;;;;;4.32;2.38;;;;;;;16.40;100.00;100552.56;2616612;31;20053;-58
2021/09/24 16:46:35;;;;;;;3.42;2.00;;;;;;;16.40;100.00;100545.66;2615188;36;20061;-58
2021/09/24 16:49:05;;;;;;;4.03;2.58;;;;;;;16.38;100.00;100542.25;2615858;31;20554;-57
2021/09/24 16:51:33;;;;;;;5.75;2.53;;;;;;;16.36;100.00;100550.84;2621488;31;20034;-61
2021/09/24 16:54:03;;;;;;;5.47;2.60;;;;;;;16.37;100.00;100550.00;2622865;36;20032;-56
2021/09/24 16:56:31;;;;;;;4.03;2.42;;;;;;;16.33;100.00;100554.31;2621311;36;20110;-59
2021/09/24 16:58:59;;;;;;;3.58;2.45;;;;;;;16.29;100.00;100553.44;2616431;36;20049;-61
2021/09/24 17:01:26;;;;;;;9.15;2.80;;;;;;;16.29;100.00;100544.84;2615947;31;20034;-59
2021/09/24 17:03:53;;;;;;;4.97;2.30;;;;;;;16.29;100.00;100539.66;2615764;36;20505;-58
2021/09/24 17:06:21;;;;;;;8.05;2.65;;;;;;;16.28;100.00;100549.13;2616311;31;20059;-62
2021/09/24 17:08:48;;;;;;;6.25;3.03;;;;;;;16.25;100.00;100556.88;2615784;31;20061;-57
2021/09/24 17:11:19;;;;;;;4.72;2.78;;;;;;;16.21;100.00;100552.56;2617764;31;20023;-58
2021/09/24 17:13:46;;;;;;;3.70;2.60;;;;;;;16.22;100.00;100558.59;2614950;31;20595;-60
2021/09/24 17:16:14;;;;;;;8.25;3.22;;;;;;;16.19;100.00;100559.47;2614793;36;20549;-56
2021/09/24 17:18:41;;;;;;;3.75;2.85;;;;;;;16.16;100.00;100556.03;2614662;36;20074;-59
2021/09/24 17:21:09;;;;;;;5.28;3.17;;;;;;;16.15;100.00;100562.91;2616066;31;20567;-57
2021/09/24 17:23:37;;;;;;;4.75;2.95;;;;;;;16.14;100.00;100556.03;2616284;31;20037;-59
2021/09/24 17:26:04;;;;;;;6.15;3.53;;;;;;;16.13;100.00;100556.00;2617983;36;20049;-58
2021/09/24 17:28:31;;;;;;;9.48;3.15;;;;;;;16.12;100.00;100559.47;2616089;36;20430;-59
2021/09/24 17:30:59;;;;;;;6.20;3.33;;;;;;;16.11;100.00;100562.91;2615009;36;20042;-60
2021/09/24 17:33:26;;;;;;;6.20;3.22;;;;;;;16.09;100.00;100568.09;2616241;36;20438;-56
2021/09/24 17:35:53;;;;;;;7.90;3.22;;;;;;;16.09;100.00;100564.63;2618167;31;20041;-60
2021/09/24 17:38:20;;;;;;;6.18;3.20;;;;;;;16.08;100.00;100571.50;2614372;36;20038;-58
2021/09/24 17:40:50;;;;;;;4.75;3.47;;;;;;;16.06;100.00;100573.22;2615760;36;20039;-58
2021/09/24 17:43:17;;;;;;;6.90;3.60;;;;;;;16.06;100.00;100567.22;2615356;31;20039;-58
2021/09/24 17:45:44;;;;;;;4.82;3.15;;;;;;;16.04;100.00;100568.06;2613621;36;20034;-56
2021/09/24 17:48:11;;;;;;;6.30;3.30;;;;;;;16.02;100.00;100571.50;2614594;31;20130;-57
2021/09/24 17:50:39;;;;;;;5.03;3.40;;;;;;;16.05;100.00;100568.94;2613463;36;20038;-54
2021/09/24 17:53:06;;;;;;;7.40;3.78;;;;;;;16.02;100.00;100574.09;2616344;36;20454;-58
2021/09/24 17:55:33;;;;;;;6.93;3.20;;;;;;;16.00;100.00;100574.09;2613751;36;20034;-63
2021/09/24 17:58:00;;;;;;;4.95;3.28;;;;;;;15.95;100.00;100575.81;2617595;31;20046;-57
2021/09/24 18:00:27;;;;;;;5.65;3.22;;;;;;;15.95;100.00;100572.38;2618674;36;20042;-57
2021/09/24 18:02:55;;;;;;;6.97;3.45;;;;;;;15.96;100.00;100585.28;2616736;36;20030;-54
2021/09/24 18:05:23;;;;;;;8.30;3.58;;;;;;;15.93;100.00;100580.09;2614277;36;20030;-57
2021/09/24 18:07:50;;;;;;;5.72;3.03;;;;;;;15.93;100.00;100574.94;2614486;36;20034;-58
2021/09/24 18:10:18;;;;;;;7.90;3.13;;;;;;;15.95;100.00;100574.94;2614043;36;20046;-57
2021/09/24 18:12:45;;;;;;;4.75;3.28;;;;;;;15.95;100.00;100596.47;2614429;31;20041;-56
2021/09/24 18:15:14;;;;;;;7.75;3.20;;;;;;;15.93;100.00;100585.25;2615349;31;20446;-58
2021/09/24 18:17:41;;;;;;;7.20;3.60;;;;;;;15.94;100.00;100602.47;2615020;31;20049;-54
2021/09/24 18:20:09;;;;;;;4.15;2.88;;;;;;;15.92;100.00;100595.59;2614016;36;20034;-59
2021/09/24 18:22:36;;;;;;;5.85;3.33;;;;;;;15.91;100.00;100594.72;2615491;31;20038;-57
2021/09/24 18:25:04;;;;;;;7.18;3.30;;;;;;;15.91;100.00;100594.72;2614184;31;20441;-56
2021/09/24 18:27:32;;;;;;;3.45;2.88;;;;;;;15.90;100.00;100597.28;2613399;36;20830;-59
2021/09/24 18:29:59;;;;;;;5.22;3.63;;;;;;;15.91;100.00;100591.28;2615694;36;20090;-58
2021/09/24 18:32:26;;;;;;;7.63;3.22;;;;;;;15.90;100.00;100594.72;2616854;36;20030;-58
2021/09/24 18:34:53;;;;;;;6.45;3.30;;;;;;;15.89;100.00;100593.00;2617425;36;20023;-56
2021/09/24 18:37:20;;;;;;;6.18;3.60;;;;;;;15.87;100.00;100595.59;2617649;31;20031;-55
2021/09/24 18:39:48;;;;;;;6.78;5.28;;;;;;;15.87;100.00;100585.25;2616910;36;20053;-58
2021/09/24 18:42:15;;;;;;;7.65;4.25;;;;;;;15.82;100.00;100592.13;2616143;36;20582;-59
2021/09/24 18:44:42;;;;;;;6.07;3.90;;;;;;;15.82;100.00;100594.72;2616490;36;20030;-59
2021/09/24 18:47:12;;;;;;;4.55;3.97;;;;;;;15.83;100.00;100601.59;2617443;31;20026;-57
2021/09/24 18:49:39;;;;;;;5.97;3.90;;;;;;;15.83;100.00;100595.56;2617162;31;20035;-61
2021/09/24 18:52:06;;;;;;;8.25;4.38;;;;;;;15.83;100.00;100600.72;2617311;31;20030;-59
2021/09/24 18:54:33;;;;;;;9.07;5.22;;;;;;;15.83;100.00;100599.00;2617651;31;20027;-57
2021/09/24 18:57:01;;;;;;;9.90;4.80;;;;;;;15.83;100.00;100598.16;2617076;36;20022;-57
2021/09/24 18:59:28;;;;;;;5.53;3.97;;;;;;;15.84;100.00;100600.72;2616728;36;20613;-61
2021/09/24 19:01:56;;;;;;;8.45;4.10;;;;;;;15.80;100.00;100606.75;2617151;36;20045;-56
2021/09/24 19:04:23;;;;;;;6.88;4.43;;;;;;;15.81;100.00;100611.06;2618223;36;20514;-57
2021/09/24 19:06:51;;;;;;;10.25;4.13;;;;;;;15.82;100.00;100617.09;2617307;36;20023;-56
2021/09/24 19:09:18;;;;;;;6.38;4.63;;;;;;;15.83;100.00;100613.66;2619063;31;20038;-59
2021/09/24 19:11:46;;;;;;;8.18;4.70;;;;;;;15.84;100.00;100613.63;2619618;31;20029;-58
2021/09/24 19:14:13;;;;;;;7.00;4.80;;;;;;;15.83;100.00;100616.22;2617667;31;20710;-57
2021/09/24 19:16:40;;;;;;;6.55;4.93;;;;;;;15.82;100.00;100614.50;2617720;36;20026;-59
2021/09/24 19:19:08;;;;;;;9.15;5.63;;;;;;;15.80;100.00;100609.31;2617665;36;20034;-57
2021/09/24 19:21:35;;;;;;;7.47;5.30;;;;;;;15.78;100.00;100616.22;2618161;36;20388;-56
2021/09/24 19:24:02;;;;;;;8.15;5.75;;;;;;;15.78;100.00;100606.75;2617818;31;20031;-56
2021/09/24 19:26:29;;;;;;;6.90;4.93;;;;;;;15.78;100.00;100611.06;2617414;36;20027;-56